Time;durP1;ratioP1;P1;durP2;ratioP2;P2;SDS_P1;SDS_P2;PMS_P1;PMS_P2;Temp;Humidity;BMP_temperature;BMP_pressure;BME280_temperature;BME280_humidity;BME280_pressure;Samples;Min_cycle;Max_cycle;Signal;HPM_P1;HPM_P2
2021/11/22 00:00:09;;;;;;;4.53;0.80;;;14.40;66.00;;;;;;4827788;29;20338;-72
2021/11/22 00:02:35;;;;;;;3.60;0.77;;;14.30;66.10;;;;;;4827020;29;20365;-72
2021/11/22 00:05:00;;;;;;;3.85;0.55;;;14.30;65.60;;;;;;4827115;29;20050;-73
2021/11/22 00:07:26;;;;;;;4.13;1.00;;;14.30;65.80;;;;;;4827030;29;20058;-72
2021/11/22 00:09:52;;;;;;;5.93;0.98;;;14.20;65.40;;;;;;4827036;29;20050;-72
2021/11/22 00:12:17;;;;;;;2.75;0.50;;;14.20;66.10;;;;;;4811041;29;20134;-72
2021/11/22 00:14:43;;;;;;;2.97;0.40;;;14.20;66.30;;;;;;4827423;29;20050;-72
2021/11/22 00:17:09;;;;;;;4.47;0.63;;;14.20;65.90;;;;;;4827023;29;20396;-73
2021/11/22 00:19:35;;;;;;;3.58;0.50;;;14.10;65.50;;;;;;4810877;29;20058;-71
2021/11/22 00:22:02;;;;;;;3.10;0.40;;;14.20;65.60;;;;;;4827107;29;20350;-72
2021/11/22 00:24:28;;;;;;;4.10;0.63;;;14.10;65.50;;;;;;4827261;29;20145;-72
2021/11/22 00:26:54;;;;;;;2.90;0.45;;;14.10;65.70;;;;;;4811021;29;20145;-71
2021/11/22 00:29:19;;;;;;;2.40;0.60;;;14.10;65.70;;;;;;4826882;29;20458;-71
2021/11/22 00:31:48;;;;;;;1.67;0.40;;;14.00;65.50;;;;;;4827061;29;20093;-72
2021/11/22 00:34:14;;;;;;;3.45;0.75;;;14.00;65.80;;;;;;4826467;29;20065;-72
2021/11/22 00:36:40;;;;;;;5.07;0.80;;;14.00;65.60;;;;;;4827404;29;20141;-72
2021/11/22 00:39:05;;;;;;;3.53;0.73;;;13.90;65.70;;;;;;4826742;29;20137;-71
2021/11/22 00:41:31;;;;;;;3.53;0.55;;;13.90;65.60;;;;;;4826658;29;20054;-73
2021/11/22 00:43:57;;;;;;;3.70;0.75;;;13.90;65.70;;;;;;4826980;29;20057;-71
2021/11/22 00:46:26;;;;;;;4.10;0.68;;;13.90;65.60;;;;;;4826422;29;20428;-72
2021/11/22 00:48:51;;;;;;;2.15;0.60;;;13.90;65.60;;;;;;4810542;29;20056;-72
2021/11/22 00:51:17;;;;;;;3.45;1.00;;;13.90;65.50;;;;;;4826835;29;20054;-72
2021/11/22 00:53:43;;;;;;;3.47;0.50;;;13.90;65.70;;;;;;4810916;29;20479;-73
2021/11/22 00:56:09;;;;;;;3.53;0.40;;;13.80;65.30;;;;;;4810610;29;20211;-72
2021/11/22 00:58:34;;;;;;;4.35;0.77;;;13.80;65.30;;;;;;4810444;29;20061;-72
2021/11/22 01:01:00;;;;;;;3.40;0.60;;;13.80;65.20;;;;;;4810479;29;20429;-72
2021/11/22 01:03:26;;;;;;;2.80;0.68;;;13.80;65.30;;;;;;4826496;29;20050;-72
2021/11/22 01:05:52;;;;;;;3.47;0.50;;;13.80;65.10;;;;;;4810220;29;20061;-73
2021/11/22 01:08:18;;;;;;;2.85;0.63;;;13.70;64.90;;;;;;4810386;29;20481;-71
2021/11/22 01:10:44;;;;;;;3.35;0.57;;;13.80;65.30;;;;;;4810272;29;20047;-73
2021/11/22 01:13:11;;;;;;;6.20;0.68;;;13.80;65.20;;;;;;4810284;29;20058;-73
2021/11/22 01:15:37;;;;;;;4.78;0.77;;;13.80;65.00;;;;;;4826288;29;20057;-72
2021/11/22 01:18:04;;;;;;;3.22;0.40;;;13.80;64.90;;;;;;4826137;29;20050;-72
2021/11/22 01:20:31;;;;;;;3.30;0.65;;;13.70;64.50;;;;;;4810291;29;20085;-72
2021/11/22 01:23:02;;;;;;;5.57;0.85;;;13.70;64.40;;;;;;4810610;29;20142;-72
2021/11/22 01:25:28;;;;;;;4.03;0.38;;;13.70;64.50;;;;;;4825982;29;20058;-72
2021/11/22 01:27:54;;;;;;;2.58;0.63;;;13.70;65.00;;;;;;4825968;29;20066;-73
2021/11/22 01:30:21;;;;;;;3.33;0.60;;;13.70;64.90;;;;;;4810091;29;20096;-71
2021/11/22 01:32:47;;;;;;;3.03;0.70;;;13.70;65.10;;;;;;4828514;29;20399;-72
2021/11/22 01:35:14;;;;;;;3.72;0.88;;;13.60;64.90;;;;;;4829359;29;20057;-71
2021/11/22 01:37:40;;;;;;;3.38;0.47;;;13.60;64.20;;;;;;4813746;29;20432;-73
2021/11/22 01:40:07;;;;;;;4.82;0.40;;;13.60;64.50;;;;;;4813863;29;20046;-72
2021/11/22 01:42:37;;;;;;;2.72;0.40;;;13.50;64.60;;;;;;4829674;29;20115;-71
2021/11/22 01:45:04;;;;;;;2.63;0.50;;;13.50;65.00;;;;;;4829594;29;20062;-73
2021/11/22 01:47:29;;;;;;;2.90;0.60;;;13.50;64.70;;;;;;4829329;29;20131;-71
2021/11/22 01:49:55;;;;;;;2.55;0.50;;;13.50;64.60;;;;;;4813509;29;20050;-71
2021/11/22 01:52:21;;;;;;;4.35;0.85;;;13.50;64.70;;;;;;4814158;29;20146;-72
2021/11/22 01:54:47;;;;;;;2.95;0.50;;;13.40;64.80;;;;;;4829402;29;20054;-72
2021/11/22 01:57:12;;;;;;;5.38;0.63;;;13.40;64.70;;;;;;4828903;29;20050;-72
2021/11/22 01:59:38;;;;;;;3.72;1.13;;;13.30;65.10;;;;;;4829601;29;20479;-71
2021/11/22 02:02:04;;;;;;;2.88;0.30;;;13.30;65.30;;;;;;4828807;29;20187;-72
2021/11/22 02:04:30;;;;;;;3.38;0.63;;;13.40;65.40;;;;;;4813970;29;20145;-72
2021/11/22 02:06:56;;;;;;;3.92;0.30;;;13.30;65.30;;;;;;4828920;29;20054;-71
2021/11/22 02:09:22;;;;;;;2.05;0.35;;;13.30;65.30;;;;;;4813374;29;20362;-72
2021/11/22 02:11:49;;;;;;;3.80;0.50;;;13.30;65.20;;;;;;4813357;29;20068;-73
2021/11/22 02:14:14;;;;;;;3.10;0.40;;;13.30;65.20;;;;;;4813317;29;20133;-72
2021/11/22 02:16:40;;;;;;;3.10;0.43;;;13.30;65.50;;;;;;4813156;29;20133;-72
2021/11/22 02:19:06;;;;;;;4.00;0.38;;;13.30;65.50;;;;;;4828714;29;20058;-73
2021/11/22 02:21:32;;;;;;;3.95;0.75;;;13.30;65.40;;;;;;4813021;29;20061;-72
2021/11/22 02:23:58;;;;;;;3.95;0.47;;;13.30;65.30;;;;;;4829077;29;20054;-74
2021/11/22 02:26:24;;;;;;;2.60;0.60;;;13.30;64.80;;;;;;4812879;29;20081;-74
2021/11/22 02:28:50;;;;;;;3.42;0.38;;;13.30;65.00;;;;;;4812981;29;20370;-72
2021/11/22 02:31:16;;;;;;;4.10;0.50;;;13.30;64.90;;;;;;4828173;29;20050;-72
2021/11/22 02:33:42;;;;;;;2.90;0.50;;;13.30;64.80;;;;;;4810311;29;20050;-74
2021/11/22 02:36:08;;;;;;;1.98;0.50;;;13.30;64.40;;;;;;4794531;29;20054;-71
2021/11/22 02:38:36;;;;;;;3.05;0.50;;;13.20;64.90;;;;;;4810854;29;20097;-72
2021/11/22 02:41:04;;;;;;;4.63;0.50;;;13.30;64.60;;;;;;4810686;29;20058;-72
2021/11/22 02:43:32;;;;;;;3.08;0.30;;;13.30;64.60;;;;;;4810129;29;20053;-72
2021/11/22 02:45:58;;;;;;;3.85;0.40;;;13.20;63.90;;;;;;4810744;29;20055;-72
2021/11/22 02:48:24;;;;;;;4.38;0.50;;;13.20;64.40;;;;;;4794304;29;20126;-71
2021/11/22 02:50:50;;;;;;;1.80;0.40;;;13.20;64.60;;;;;;4794643;29;20437;-71
2021/11/22 02:53:16;;;;;;;3.22;0.38;;;13.10;64.10;;;;;;4810400;29;20112;-72
2021/11/22 02:55:42;;;;;;;3.38;0.60;;;13.10;64.00;;;;;;4794496;29;20058;-72
2021/11/22 02:58:08;;;;;;;2.30;0.40;;;13.10;64.40;;;;;;4779490;29;20126;-72
2021/11/22 03:00:35;;;;;;;2.45;0.52;;;13.10;64.40;;;;;;4809531;29;20121;-71
2021/11/22 03:03:02;;;;;;;1.85;0.28;;;13.10;64.40;;;;;;4794963;29;20055;-72
2021/11/22 03:05:28;;;;;;;3.35;0.50;;;13.10;64.30;;;;;;4810588;29;20065;-72
2021/11/22 03:07:56;;;;;;;4.63;0.38;;;13.10;64.20;;;;;;4793852;29;20051;-72
2021/11/22 03:10:24;;;;;;;2.83;0.47;;;13.00;64.40;;;;;;4794153;29;20050;-73
2021/11/22 03:12:50;;;;;;;3.60;0.68;;;13.10;64.70;;;;;;4794178;29;20451;-73
2021/11/22 03:15:19;;;;;;;4.05;0.50;;;13.00;64.60;;;;;;4794787;29;20137;-72
2021/11/22 03:17:45;;;;;;;5.25;0.60;;;13.10;64.70;;;;;;4794314;29;20085;-72
2021/11/22 03:20:13;;;;;;;2.70;0.55;;;13.10;64.60;;;;;;4793911;29;20432;-73
2021/11/22 03:22:39;;;;;;;4.65;0.55;;;13.10;64.30;;;;;;4809767;29;20083;-72
2021/11/22 03:25:07;;;;;;;3.58;0.85;;;13.00;64.50;;;;;;4793966;29;20435;-72
2021/11/22 03:27:34;;;;;;;2.60;0.40;;;13.00;64.50;;;;;;4806160;29;20073;-70
2021/11/22 03:29:59;;;;;;;1.80;0.47;;;13.00;64.40;;;;;;4806847;29;20194;-72
2021/11/22 03:32:25;;;;;;;1.70;0.30;;;13.00;64.40;;;;;;4811170;29;20133;-71
2021/11/22 03:34:51;;;;;;;2.50;0.50;;;13.00;64.60;;;;;;4811934;29;20046;-73
2021/11/22 03:37:17;;;;;;;4.63;0.50;;;13.00;64.50;;;;;;4827779;29;20050;-71
2021/11/22 03:39:49;;;;;;;4.35;0.75;;;13.00;64.60;;;;;;4828038;29;20058;-74
2021/11/22 03:42:16;;;;;;;3.03;0.50;;;13.00;64.50;;;;;;4812202;29;20057;-72
2021/11/22 03:44:44;;;;;;;1.48;0.40;;;13.00;64.40;;;;;;4811402;29;20485;-73
2021/11/22 03:47:10;;;;;;;4.18;0.75;;;12.90;64.20;;;;;;4827688;29;20340;-73
2021/11/22 03:49:36;;;;;;;2.15;0.57;;;12.90;64.10;;;;;;4827708;29;20374;-71
2021/11/22 03:52:03;;;;;;;2.65;0.50;;;12.90;64.50;;;;;;4811647;29;20063;-72
2021/11/22 03:54:28;;;;;;;1.08;0.40;;;12.80;64.70;;;;;;4810858;29;20455;-72
2021/11/22 03:56:54;;;;;;;4.28;0.50;;;12.80;64.60;;;;;;4827354;29;20050;-73
2021/11/22 03:59:20;;;;;;;2.08;0.40;;;12.80;64.50;;;;;;4811092;29;20050;-73
2021/11/22 04:01:46;;;;;;;3.50;0.65;;;12.80;64.50;;;;;;4810290;29;20107;-71
2021/11/22 04:04:12;;;;;;;2.53;0.40;;;12.70;64.40;;;;;;4809950;29;20125;-73
2021/11/22 04:06:38;;;;;;;3.65;0.50;;;12.70;64.50;;;;;;4827242;29;20481;-72
2021/11/22 04:09:04;;;;;;;2.20;0.55;;;12.70;64.80;;;;;;4811358;29;20054;-72
2021/11/22 04:11:31;;;;;;;2.75;0.50;;;12.70;64.70;;;;;;4811143;29;20050;-71
2021/11/22 04:13:57;;;;;;;3.83;0.30;;;12.70;64.70;;;;;;4811302;29;20061;-71
2021/11/22 04:16:23;;;;;;;2.85;0.40;;;12.70;64.60;;;;;;4811087;29;20054;-71
2021/11/22 04:18:49;;;;;;;2.38;0.40;;;12.70;64.70;;;;;;4827064;29;20134;-72
2021/11/22 04:21:17;;;;;;;2.85;0.30;;;12.70;64.40;;;;;;4827768;29;20447;-71
2021/11/22 04:23:43;;;;;;;2.20;0.22;;;12.60;64.70;;;;;;4811178;29;20058;-72
2021/11/22 04:26:10;;;;;;;2.78;0.65;;;12.60;64.80;;;;;;4810913;29;20122;-71
2021/11/22 04:28:37;;;;;;;3.67;0.43;;;12.60;64.90;;;;;;4826784;29;20059;-70
2021/11/22 04:31:04;;;;;;;4.18;0.68;;;12.60;64.50;;;;;;4826769;29;20050;-74
2021/11/22 04:33:30;;;;;;;2.20;0.30;;;12.60;64.60;;;;;;4810862;29;20386;-71
2021/11/22 04:35:55;;;;;;;1.88;0.28;;;12.60;64.80;;;;;;4827535;29;20050;-73
2021/11/22 04:38:21;;;;;;;2.78;0.35;;;12.60;64.70;;;;;;4811377;29;20064;-70
2021/11/22 04:40:47;;;;;;;1.05;0.45;;;12.60;64.50;;;;;;4811349;29;20054;-72
2021/11/22 04:43:12;;;;;;;4.85;0.77;;;12.50;64.90;;;;;;4826499;29;20050;-70
2021/11/22 04:45:38;;;;;;;2.40;0.40;;;12.50;65.00;;;;;;4826838;29;20370;-72
2021/11/22 04:48:06;;;;;;;2.13;0.40;;;12.50;65.10;;;;;;4810254;29;20054;-73
2021/11/22 04:50:33;;;;;;;1.40;0.40;;;12.60;64.90;;;;;;4826889;29;20141;-72
2021/11/22 04:53:01;;;;;;;3.70;0.40;;;12.50;64.70;;;;;;4826724;29;20058;-71
2021/11/22 04:55:27;;;;;;;3.03;0.60;;;12.50;65.30;;;;;;4827057;29;20415;-72
2021/11/22 04:57:53;;;;;;;4.28;0.50;;;12.60;65.90;;;;;;4810943;29;20093;-75
2021/11/22 05:00:21;;;;;;;4.85;0.57;;;12.90;66.70;;;;;;4810177;29;20504;-80
2021/11/22 05:02:47;;;;;;;3.53;0.32;;;13.10;65.50;;;;;;4826464;29;20047;-74
2021/11/22 05:05:14;;;;;;;5.03;0.60;;;13.30;64.70;;;;;;4824799;29;20125;-75
2021/11/22 05:07:40;;;;;;;4.78;0.80;;;13.40;63.90;;;;;;4825306;29;20370;-79
2021/11/22 05:10:07;;;;;;;4.43;0.50;;;13.60;63.20;;;;;;4809743;29;20050;-78
2021/11/22 05:12:32;;;;;;;6.70;0.73;;;13.70;62.20;;;;;;4825820;29;20038;-79
2021/11/22 05:14:58;;;;;;;2.70;0.57;;;13.80;61.30;;;;;;4794840;29;20045;-82
2021/11/22 05:17:24;;;;;;;5.55;0.70;;;13.80;60.50;;;;;;4809852;29;20051;-76
2021/11/22 05:19:50;;;;;;;3.85;0.38;;;13.90;59.90;;;;;;4795248;29;20053;-72
2021/11/22 05:22:21;;;;;;;3.67;0.40;;;14.00;59.30;;;;;;4826837;29;20499;-73
2021/11/22 05:24:50;;;;;;;3.35;0.63;;;14.00;59.30;;;;;;4810538;29;20064;-71
2021/11/22 05:27:20;;;;;;;4.30;0.55;;;14.00;59.80;;;;;;4825917;29;20066;-73
2021/11/22 05:29:47;;;;;;;7.18;1.15;;;14.10;60.20;;;;;;4825698;29;20378;-73
2021/11/22 05:32:17;;;;;;;5.50;1.00;;;14.20;60.60;;;;;;4826777;29;20133;-71
2021/11/22 05:34:44;;;;;;;5.22;1.13;;;14.50;60.70;;;;;;4810052;29;20126;-73
2021/11/22 05:37:10;;;;;;;8.90;1.08;;;14.90;61.00;;;;;;4826138;29;20058;-71
2021/11/22 05:39:37;;;;;;;9.00;0.90;;;15.20;61.50;;;;;;4810046;29;20435;-73
2021/11/22 05:42:03;;;;;;;3.97;0.90;;;15.50;61.40;;;;;;4825851;29;20127;-71
2021/11/22 05:44:32;;;;;;;4.70;0.60;;;15.70;61.10;;;;;;4825872;29;20145;-71
2021/11/22 05:46:58;;;;;;;10.95;1.73;;;15.90;60.90;;;;;;4809784;29;20383;-72
2021/11/22 05:49:23;;;;;;;5.03;0.43;;;16.10;60.80;;;;;;4809671;29;20050;-72
2021/11/22 05:51:50;;;;;;;9.95;0.70;;;16.20;60.70;;;;;;4825518;29;20066;-71
2021/11/22 05:54:18;;;;;;;5.97;0.40;;;16.20;60.80;;;;;;4825566;29;20203;-73
2021/11/22 05:56:44;;;;;;;7.43;1.00;;;16.20;60.80;;;;;;4825467;29;20126;-72
2021/11/22 05:59:10;;;;;;;8.93;0.70;;;16.30;61.20;;;;;;4825175;29;20054;-73
2021/11/22 06:01:35;;;;;;;9.00;1.00;;;16.30;61.20;;;;;;4809073;29;20050;-72
2021/11/22 06:04:01;;;;;;;10.75;0.95;;;16.30;61.40;;;;;;4825743;29;20054;-72
2021/11/22 06:06:27;;;;;;;10.40;1.23;;;16.30;61.60;;;;;;4825605;29;20050;-78
2021/11/22 06:08:59;;;;;;;8.73;0.93;;;16.40;61.90;;;;;;4825542;29;20081;-77
2021/11/22 06:11:24;;;;;;;15.45;1.55;;;16.40;62.20;;;;;;4825596;29;20042;-75
2021/11/22 06:13:50;;;;;;;13.15;0.80;;;16.40;62.70;;;;;;4809326;29;20051;-75
2021/11/22 06:16:16;;;;;;;18.05;1.38;;;16.50;62.90;;;;;;4825667;29;20050;-75
2021/11/22 06:18:42;;;;;;;13.27;1.25;;;16.50;63.10;;;;;;4827434;29;20435;-75
2021/11/22 06:21:08;;;;;;;11.00;1.10;;;16.60;63.40;;;;;;4828617;29;20047;-75
2021/11/22 06:23:34;;;;;;;7.88;1.10;;;16.70;63.70;;;;;;4829018;29;20046;-75
2021/11/22 06:26:00;;;;;;;7.45;0.50;;;16.80;63.80;;;;;;4828468;29;20439;-75
2021/11/22 06:28:26;;;;;;;10.80;1.33;;;16.90;63.80;;;;;;4828559;29;20069;-76
2021/11/22 06:30:51;;;;;;;12.02;1.70;;;17.00;63.60;;;;;;4812662;29;20070;-74
2021/11/22 06:33:17;;;;;;;8.10;0.60;;;17.10;63.40;;;;;;4828074;29;20054;-74
2021/11/22 06:35:43;;;;;;;10.15;1.15;;;17.10;63.20;;;;;;4829144;29;20145;-74
2021/11/22 06:38:09;;;;;;;10.95;1.13;;;17.20;63.20;;;;;;4828788;29;20270;-78
2021/11/22 06:40:35;;;;;;;14.43;0.80;;;17.30;63.50;;;;;;4812899;29;20362;-77
2021/11/22 06:43:01;;;;;;;9.65;1.35;;;17.30;63.30;;;;;;4812808;29;20141;-72
2021/11/22 06:45:27;;;;;;;12.68;1.98;;;17.40;62.90;;;;;;4827836;29;20050;-74
2021/11/22 06:47:53;;;;;;;21.52;1.15;;;17.40;62.80;;;;;;4828245;29;20042;-72
2021/11/22 06:50:19;;;;;;;10.32;1.13;;;17.40;62.10;;;;;;4827843;29;20390;-73
2021/11/22 06:52:46;;;;;;;10.55;1.40;;;17.30;62.70;;;;;;4828256;29;20057;-72
2021/11/22 06:55:12;;;;;;;13.25;1.05;;;17.30;62.50;;;;;;4826699;29;20093;-73
2021/11/22 06:57:37;;;;;;;14.57;1.17;;;17.20;62.90;;;;;;4827734;29;20061;-73
2021/11/22 07:00:07;;;;;;;9.38;1.05;;;17.10;62.70;;;;;;4828335;29;20347;-73
2021/11/22 07:02:32;;;;;;;5.18;1.02;;;17.00;63.10;;;;;;4828094;29;20050;-73
2021/11/22 07:04:58;;;;;;;10.80;0.90;;;17.00;63.80;;;;;;4812210;29;20046;-73
2021/11/22 07:07:25;;;;;;;11.95;0.93;;;16.90;63.30;;;;;;4828459;29;20050;-74
2021/11/22 07:09:52;;;;;;;7.47;0.95;;;16.80;63.70;;;;;;4828002;29;20140;-74
2021/11/22 07:12:18;;;;;;;9.05;1.10;;;16.80;62.70;;;;;;4828035;29;20054;-73
2021/11/22 07:14:44;;;;;;;8.25;0.93;;;16.70;62.10;;;;;;4827499;29;20133;-74
2021/11/22 07:17:11;;;;;;;5.55;0.82;;;16.50;61.70;;;;;;4827613;29;20375;-73
2021/11/22 07:19:37;;;;;;;8.68;1.30;;;16.50;62.20;;;;;;4827711;29;20073;-74
2021/11/22 07:22:07;;;;;;;5.32;0.60;;;16.40;62.10;;;;;;4827150;29;20054;-74
2021/11/22 07:24:34;;;;;;;6.57;0.88;;;16.40;62.50;;;;;;4827690;29;20058;-73
2021/11/22 07:27:00;;;;;;;10.27;0.50;;;16.30;62.70;;;;;;4827243;29;20474;-73
2021/11/22 07:29:26;;;;;;;6.20;0.60;;;16.30;62.40;;;;;;4826912;29;20137;-73
2021/11/22 07:31:52;;;;;;;4.47;0.77;;;16.30;63.10;;;;;;4825071;29;20061;-73
2021/11/22 07:34:17;;;;;;;10.50;0.70;;;16.30;62.80;;;;;;4827564;29;20374;-73
2021/11/22 07:36:43;;;;;;;13.75;1.10;;;15.80;55.40;;;;;;4821658;29;20058;-73
2021/11/22 07:39:09;;;;;;;8.63;0.98;;;15.80;62.80;;;;;;4826365;29;20137;-77
2021/11/22 07:41:35;;;;;;;11.60;1.35;;;15.90;62.40;;;;;;4812387;29;20057;-73
2021/11/22 07:44:00;;;;;;;6.80;0.47;;;16.00;62.80;;;;;;4827720;29;20131;-72
2021/11/22 07:46:27;;;;;;;8.57;0.95;;;16.00;62.70;;;;;;4806267;29;20066;-72
2021/11/22 07:48:55;;;;;;;14.63;1.23;;;16.00;62.50;;;;;;4826906;29;20073;-72
2021/11/22 07:51:21;;;;;;;6.55;0.70;;;16.00;62.80;;;;;;4811240;29;20085;-73
2021/11/22 07:53:47;;;;;;;7.60;0.77;;;16.00;63.00;;;;;;4827359;29;20437;-73
2021/11/22 07:56:13;;;;;;;9.30;1.20;;;16.00;63.10;;;;;;4823988;29;20096;-72
2021/11/22 07:58:39;;;;;;;9.07;0.85;;;16.00;62.80;;;;;;4827374;29;20061;-71
2021/11/22 08:01:05;;;;;;;8.35;0.65;;;16.00;63.50;;;;;;4827011;29;20117;-72
2021/11/22 08:03:30;;;;;;;5.97;0.90;;;16.10;63.50;;;;;;4825194;29;20497;-73
2021/11/22 08:05:58;;;;;;;13.00;1.10;;;16.00;63.20;;;;;;4826728;29;20054;-74
2021/11/22 08:08:28;;;;;;;6.00;0.80;;;16.10;63.60;;;;;;4827025;29;20050;-73
2021/11/22 08:11:06;;;;;;;9.80;1.33;;;16.10;64.20;;;;;;4827023;29;20054;-73
2021/11/22 08:13:33;;;;;;;14.57;1.33;;;16.10;63.70;;;;;;4827230;29;20069;-74
2021/11/22 08:16:01;;;;;;;6.90;0.77;;;16.10;61.00;;;;;;4826937;29;20062;-73
2021/11/22 08:18:30;;;;;;;8.25;0.70;;;15.30;57.20;;;;;;4824993;29;20058;-73
2021/11/22 08:20:56;;;;;;;7.10;1.10;;;15.30;63.80;;;;;;4826550;29;20070;-74
2021/11/22 08:23:22;;;;;;;6.70;0.75;;;15.50;64.60;;;;;;4826824;29;20054;-73
2021/11/22 08:25:50;;;;;;;10.38;1.13;;;15.50;64.40;;;;;;4826367;29;20062;-71
2021/11/22 08:28:17;;;;;;;22.20;1.45;;;15.70;64.60;;;;;;4823625;29;20055;-80
2021/11/22 08:30:43;;;;;;;13.55;1.42;;;15.90;61.80;;;;;;4810905;29;20082;-79
2021/11/22 08:33:13;;;;;;;13.35;1.58;;;15.60;63.70;;;;;;4810363;29;20427;-77
2021/11/22 08:35:39;;;;;;;13.70;0.95;;;15.80;64.30;;;;;;4826525;29;20069;-82
2021/11/22 08:38:05;;;;;;;24.83;2.83;;;16.00;64.20;;;;;;4826127;29;20050;-76
2021/11/22 08:40:35;;;;;;;9.70;1.17;;;15.60;62.90;;;;;;4826159;29;20137;-80
2021/11/22 08:43:03;;;;;;;15.93;1.25;;;15.60;64.20;;;;;;4809903;29;20085;-79
2021/11/22 08:45:29;;;;;;;11.07;0.82;;;15.90;64.70;;;;;;4810435;29;20104;-82
2021/11/22 08:47:56;;;;;;;11.23;1.15;;;16.10;64.60;;;;;;4810123;29;20494;-80
2021/11/22 08:50:22;;;;;;;9.75;1.27;;;16.20;64.40;;;;;;4810289;29;20057;-79
2021/11/22 08:52:49;;;;;;;13.20;0.80;;;16.40;64.30;;;;;;4810467;29;20061;-82
2021/11/22 08:55:15;;;;;;;10.23;0.80;;;16.40;64.20;;;;;;4826480;29;20054;-77
2021/11/22 08:57:42;;;;;;;13.02;1.65;;;16.50;64.00;;;;;;4809959;29;20054;-78
2021/11/22 09:00:14;;;;;;;6.85;1.15;;;16.60;63.90;;;;;;4829749;29;20119;-77
2021/11/22 09:02:40;;;;;;;8.60;0.90;;;16.60;63.90;;;;;;4809829;29;20064;-77
2021/11/22 09:05:06;;;;;;;10.00;0.75;;;16.70;64.50;;;;;;4809971;29;20054;-78
2021/11/22 09:07:32;;;;;;;4.75;0.85;;;16.70;63.90;;;;;;4825922;29;20080;-78
2021/11/22 09:09:58;;;;;;;8.18;0.68;;;16.70;64.00;;;;;;4810514;29;20062;-79
2021/11/22 09:12:23;;;;;;;7.20;0.70;;;16.70;63.90;;;;;;4810369;29;20139;-76
2021/11/22 09:14:49;;;;;;;4.80;0.55;;;16.70;64.00;;;;;;4810158;29;20143;-74
2021/11/22 09:17:17;;;;;;;8.63;0.73;;;16.70;64.00;;;;;;4810208;29;20123;-72
2021/11/22 09:19:43;;;;;;;7.68;1.10;;;16.80;64.10;;;;;;4825389;29;20454;-73
2021/11/22 09:22:12;;;;;;;13.77;0.90;;;16.90;63.90;;;;;;4824733;29;20050;-74
2021/11/22 09:24:45;;;;;;;8.90;1.35;;;16.90;63.60;;;;;;4823259;29;20454;-76
2021/11/22 09:27:12;;;;;;;10.55;1.23;;;17.00;64.10;;;;;;4824050;29;20159;-81
2021/11/22 09:29:38;;;;;;;13.85;1.17;;;17.00;63.40;;;;;;4815033;29;20416;-75
2021/11/22 09:32:05;;;;;;;5.28;0.80;;;17.10;62.90;;;;;;4823145;29;20058;-74
2021/11/22 09:34:31;;;;;;;12.32;1.30;;;17.10;62.20;;;;;;4825928;29;20110;-74
2021/11/22 09:36:57;;;;;;;10.25;1.65;;;17.10;61.60;;;;;;4826133;29;20054;-73
2021/11/22 09:39:23;;;;;;;13.18;1.23;;;17.20;61.60;;;;;;4826060;29;20062;-73
2021/11/22 09:41:50;;;;;;;9.25;1.20;;;17.20;61.80;;;;;;4826022;29;20050;-71
2021/11/22 09:44:19;;;;;;;12.82;1.35;;;17.20;61.20;;;;;;4825776;29;20065;-71
2021/11/22 09:46:48;;;;;;;28.67;2.53;;;17.20;60.90;;;;;;4824835;29;20058;-71
2021/11/22 09:49:14;;;;;;;21.30;1.88;;;17.30;61.00;;;;;;4824652;29;20082;-73
2021/11/22 09:51:40;;;;;;;17.90;1.65;;;17.30;61.30;;;;;;4825243;29;20089;-71
2021/11/22 09:54:06;;;;;;;21.88;2.22;;;17.30;61.60;;;;;;4813197;29;20057;-71
2021/11/22 09:56:33;;;;;;;12.95;1.25;;;17.30;61.60;;;;;;4828935;29;20363;-71
2021/11/22 09:58:59;;;;;;;9.10;1.80;;;17.40;61.90;;;;;;4829178;29;20198;-73
2021/11/22 10:01:25;;;;;;;15.82;1.30;;;17.50;62.10;;;;;;4813341;29;20058;-76
2021/11/22 10:04:09;;;;;;;11.57;1.27;;;17.50;62.00;;;;;;4829067;29;20142;-73
2021/11/22 10:06:54;;;;;;;;;;;17.60;62.10;;;;;;4829511;29;20057;-76
2021/11/22 10:09:32;;;;;;;16.02;1.23;;;17.70;61.20;;;;;;4812643;29;20264;-74
2021/11/22 10:12:05;;;;;;;7.35;0.90;;;17.70;61.00;;;;;;4829011;29;20137;-75
2021/11/22 10:14:48;;;;;;;7.45;0.80;;;17.70;60.70;;;;;;4829043;29;20050;-75
2021/11/22 10:17:39;;;;;;;6.80;1.20;;;17.70;60.60;;;;;;4813236;29;20071;-75
2021/11/22 10:20:10;;;;;;;6.03;0.88;;;17.70;60.70;;;;;;4828909;29;20167;-76
2021/11/22 10:22:43;;;;;;;6.88;0.60;;;17.70;61.00;;;;;;4828840;29;20053;-72
2021/11/22 10:25:32;;;;;;;7.17;0.70;;;17.80;60.90;;;;;;4828890;29;20061;-73
2021/11/22 10:28:18;;;;;;;6.30;0.70;;;17.80;61.40;;;;;;4812290;29;20471;-75
2021/11/22 10:30:56;;;;;;;18.10;1.92;;;17.80;61.40;;;;;;4829060;29;20069;-71
2021/11/22 10:33:29;;;;;;;7.75;1.02;;;17.80;61.00;;;;;;4828816;29;20054;-73
2021/11/22 10:35:59;;;;;;;10.70;0.93;;;17.60;60.30;;;;;;4828732;29;20129;-74
2021/11/22 10:38:28;;;;;;;11.20;0.93;;;17.60;60.30;;;;;;4812991;29;20467;-70
2021/11/22 10:41:01;;;;;;;13.25;1.17;;;17.50;59.90;;;;;;4827948;29;20054;-73
2021/11/22 10:43:38;;;;;;;12.30;1.25;;;17.50;58.90;;;;;;4828253;29;20058;-73
2021/11/22 10:46:09;;;;;;;10.60;1.02;;;17.40;59.50;;;;;;4812139;29;20146;-74
2021/11/22 10:48:36;;;;;;;4.45;0.90;;;17.30;60.00;;;;;;4828327;29;20103;-74
2021/11/22 10:51:12;;;;;;;10.95;1.05;;;17.30;60.30;;;;;;4828368;29;20054;-74
2021/11/22 10:53:47;;;;;;;10.10;1.13;;;17.30;60.50;;;;;;4812298;29;20499;-72
2021/11/22 10:56:15;;;;;;;11.48;1.10;;;17.20;60.70;;;;;;4828038;29;20077;-71
2021/11/22 10:58:43;;;;;;;5.88;1.08;;;17.20;61.20;;;;;;4812001;29;20093;-72
2021/11/22 11:01:27;;;;;;;3.63;0.50;;;17.20;61.40;;;;;;4812103;29;20129;-70
2021/11/22 11:03:55;;;;;;;3.35;0.65;;;17.20;60.80;;;;;;4812352;29;20367;-72
2021/11/22 11:06:37;;;;;;;6.80;0.88;;;17.10;60.70;;;;;;4827996;29;20054;-72
2021/11/22 11:09:04;;;;;;;4.93;0.50;;;17.10;60.10;;;;;;4827165;29;20065;-72
2021/11/22 11:11:30;;;;;;;2.42;0.50;;;17.10;60.40;;;;;;4827416;29;20054;-71
2021/11/22 11:13:56;;;;;;;6.55;0.75;;;17.00;60.20;;;;;;4827678;29;20069;-74
2021/11/22 11:16:22;;;;;;;3.28;0.60;;;17.00;60.00;;;;;;4812476;29;20050;-77
2021/11/22 11:19:06;;;;;;;7.97;0.85;;;17.00;59.10;;;;;;4796946;29;20054;-71
2021/11/22 11:21:44;;;;;;;6.38;0.70;;;16.90;58.00;;;;;;4827144;29;20475;-72
2021/11/22 11:24:12;;;;;;;6.50;0.75;;;16.80;58.20;;;;;;4827976;29;20058;-71
2021/11/22 11:26:39;;;;;;;4.30;0.60;;;16.70;58.40;;;;;;4827736;29;20073;-72
2021/11/22 11:29:06;;;;;;;5.25;0.85;;;16.70;58.60;;;;;;4827917;29;20062;-71
2021/11/22 11:31:34;;;;;;;6.72;0.82;;;16.70;58.80;;;;;;4827257;29;20081;-71
2021/11/22 11:34:06;;;;;;;3.75;0.47;;;16.60;59.00;;;;;;4811558;29;20131;-71
2021/11/22 11:36:32;;;;;;;7.75;0.68;;;16.60;59.10;;;;;;4811446;29;20133;-73
2021/11/22 11:39:09;;;;;;;3.65;0.50;;;16.60;59.50;;;;;;4811676;29;20129;-72
2021/11/22 11:41:56;;;;;;;6.63;0.80;;;16.50;59.30;;;;;;4827281;29;20117;-74
2021/11/22 11:44:31;;;;;;;5.65;0.85;;;16.50;59.70;;;;;;4827674;29;20046;-72
2021/11/22 11:47:08;;;;;;;3.88;0.70;;;16.40;60.30;;;;;;4827392;29;20061;-71
2021/11/22 11:49:35;;;;;;;6.40;0.57;;;16.40;60.60;;;;;;4827571;29;20089;-73
2021/11/22 11:52:21;;;;;;;1.77;0.30;;;16.40;61.00;;;;;;4811201;29;20058;-71
2021/11/22 11:54:47;;;;;;;3.38;0.60;;;16.40;60.80;;;;;;4826901;29;20058;-72
2021/11/22 11:57:21;;;;;;;2.88;0.57;;;16.40;61.20;;;;;;4827305;29;20050;-71
2021/11/22 11:59:47;;;;;;;3.65;0.75;;;16.40;61.30;;;;;;4810893;29;20160;-73
2021/11/22 12:02:30;;;;;;;3.45;0.40;;;16.30;61.50;;;;;;4826711;29;20053;-72
2021/11/22 12:05:07;;;;;;;4.70;0.43;;;16.30;61.20;;;;;;4827274;29;20390;-71
2021/11/22 12:07:48;;;;;;;5.07;0.60;;;16.30;61.60;;;;;;4827087;29;20051;-72
2021/11/22 12:10:25;;;;;;;2.60;0.50;;;16.20;61.70;;;;;;4811234;29;20054;-72
2021/11/22 12:13:00;;;;;;;2.63;0.45;;;16.20;61.90;;;;;;4826859;29;20046;-73
2021/11/22 12:15:40;;;;;;;1.33;0.40;;;16.20;62.10;;;;;;4826773;29;20065;-72
2021/11/22 12:18:06;;;;;;;3.05;0.60;;;16.20;62.30;;;;;;4827205;29;20058;-72
2021/11/22 12:20:35;;;;;;;2.22;0.47;;;16.10;62.60;;;;;;4827139;29;20066;-71
2021/11/22 12:23:07;;;;;;;1.85;0.40;;;16.10;62.60;;;;;;4810808;29;20058;-71
2021/11/22 12:25:42;;;;;;;1.73;0.40;;;16.10;62.70;;;;;;4826722;29;20461;-73
2021/11/22 12:28:20;;;;;;;1.70;0.30;;;16.10;62.70;;;;;;4826971;29;20069;-72
2021/11/22 12:30:54;;;;;;;2.40;0.35;;;16.10;62.60;;;;;;4826910;29;20451;-72
2021/11/22 12:33:24;;;;;;;1.63;0.32;;;16.10;62.90;;;;;;4826589;29;20058;-73
2021/11/22 12:36:03;;;;;;;0.65;0.30;;;16.00;63.00;;;;;;4826983;29;20202;-72
2021/11/22 12:38:33;;;;;;;4.05;0.40;;;16.00;63.10;;;;;;4827210;29;20054;-71
2021/11/22 12:41:01;;;;;;;1.10;0.38;;;16.00;63.20;;;;;;4826652;29;20114;-71
2021/11/22 12:43:45;;;;;;;2.88;0.40;;;16.10;63.30;;;;;;4810171;29;20064;-72
2021/11/22 12:46:34;;;;;;;1.40;0.22;;;16.00;63.00;;;;;;4827326;29;20050;-71
2021/11/22 12:49:02;;;;;;;1.83;0.15;;;16.00;63.30;;;;;;4810343;29;20118;-71